Hundvaag 1 weather for Feb 2006
Month no. 224
Obs.
Da.
Temp. Dew Point Precip. Wind
Speed
Wind gusts Cloud cover Press. Humidity Wind dir. Sunny OPT
01.02.2006 1,4   0,2 4,8   0 1013,1 88,0 22,5   52,5 %
02.02.2006 -1,5   0,0 4,8   2 1013,1 88,0 22,5   55,0 %
03.02.2006 2,2   0,0 0,0   0 1013,4 88,0     55,0 %
04.02.2006 2,2   4,2 9,7   0 1019,2 88,0 157,5   47,5 %
05.02.2006 2,6   1,5 3,2   0 1021,9 87,0 157,5   57,5 %
06.02.2006 6,8   27,0 11,3   0 1009,7 86,0 225,0   30,0 %
07.02.2006 5,1   35,3 4,8   8 1000,6 83,0 337,5 1 52,5 %
08.02.2006 4,6   19,9 0,0   0 979,6 88,0     42,5 %
09.02.2006 4,0   4,1 11,3   5 989,7 81,0 45,0 1 60,0 %
10.02.2006 -1,0   0,0 0,0   10 1013,1 73,0   1 77,5 %
11.02.2006 1,5   0,0 0,0   0 1019,5 79,0     55,0 %
12.02.2006 4,5   0,1 9,7   0 1012,8 81,0 157,5   52,5 %
13.02.2006 5,4   0,0 9,8   1 1012,8 83,0 180,0   57,5 %
14.02.2006 5,0   0,1 19,3   1 1010,4 77,0 157,5   50,0 %
15.02.2006 4,6   0,1 19,3   2 990,1 74,0 157,5   50,0 %
16.02.2006 5,4   3,9 14,5   2 978,6 81,0 157,5   55,0 %
17.02.2006 2,4   4,0 20,9   3 982,3 65,0 112,5 1 47,5 %
18.02.2006 -1,8   0,0 3,2   10 989,4 59,0   1 77,5 %
19.02.2006 1,9   0,0 0,0   4 998,9 72,0   1 65,0 %
20.02.2006 0,1   0,0 3,2   10 1010,4 85,0 22,5 1 80,0 %
21.02.2006 -0,5   0,0 8,0   10 1020,9 82,0 45,0 1 72,5 %
22.02.2006 0,0   0,0 3,2   0 1029,7 68,0 0,0   55,0 %
23.02.2006 2,3   0,0 8,0   3 1021,9 73,0 22,5 1 57,5 %
24.02.2006 3,8   0,0 4,8   8 1027,7 70,0 22,5 1 75,0 %
25.02.2006 3,5   0,0 8,0   1 1022,2 85,0 45,0   55,0 %
26.02.2006 1,8   0,0 0,0   9 1020,5 71,0   1 77,5 %
27.02.2006 1,0   0,0 0,0   0 1009,4 73,0     55,0 %
28.02.2006 -0,4   11,4 0,0   9 988,4 85,0   1 67,5 %
                       
                       
                       
Avrg/Sum 2,4   111,8 6,5   3,5 1007,8 79,0 107,8 12 58,4 %